sensor_id;sensor_type;location;lat;lon;timestamp;P1;durP1;ratioP1;P2;durP2;ratioP2
32505;SDS011;18955;51.224;8.482;2023-04-15T00:02:16;8.57;;;5.10;;
32505;SDS011;18955;51.224;8.482;2023-04-15T00:04:44;6.65;;;5.30;;
32505;SDS011;18955;51.224;8.482;2023-04-15T00:07:11;11.63;;;6.25;;
32505;SDS011;18955;51.224;8.482;2023-04-15T00:09:37;10.23;;;6.43;;
32505;SDS011;18955;51.224;8.482;2023-04-15T00:12:04;8.57;;;6.40;;
32505;SDS011;18955;51.224;8.482;2023-04-15T00:14:30;9.07;;;6.38;;
32505;SDS011;18955;51.224;8.482;2023-04-15T00:16:58;10.88;;;6.05;;
32505;SDS011;18955;51.224;8.482;2023-04-15T00:19:24;5.93;;;4.30;;
32505;SDS011;18955;51.224;8.482;2023-04-15T00:21:51;9.07;;;6.55;;
32505;SDS011;18955;51.224;8.482;2023-04-15T00:24:17;9.18;;;6.63;;
32505;SDS011;18955;51.224;8.482;2023-04-15T00:26:43;9.25;;;6.22;;
32505;SDS011;18955;51.224;8.482;2023-04-15T00:29:09;6.63;;;4.82;;
32505;SDS011;18955;51.224;8.482;2023-04-15T00:31:35;11.15;;;6.57;;
32505;SDS011;18955;51.224;8.482;2023-04-15T00:34:02;6.80;;;5.13;;
32505;SDS011;18955;51.224;8.482;2023-04-15T00:36:28;7.65;;;4.40;;
32505;SDS011;18955;51.224;8.482;2023-04-15T00:38:54;10.88;;;5.38;;
32505;SDS011;18955;51.224;8.482;2023-04-15T00:41:20;7.97;;;6.28;;
32505;SDS011;18955;51.224;8.482;2023-04-15T00:46:13;8.63;;;5.63;;
32505;SDS011;18955;51.224;8.482;2023-04-15T00:48:42;6.38;;;5.05;;
32505;SDS011;18955;51.224;8.482;2023-04-15T00:51:09;7.97;;;6.57;;
32505;SDS011;18955;51.224;8.482;2023-04-15T00:53:35;8.50;;;4.53;;
32505;SDS011;18955;51.224;8.482;2023-04-15T00:56:01;11.13;;;6.53;;
32505;SDS011;18955;51.224;8.482;2023-04-15T00:58:28;11.63;;;6.22;;
32505;SDS011;18955;51.224;8.482;2023-04-15T01:00:55;9.35;;;7.38;;
32505;SDS011;18955;51.224;8.482;2023-04-15T01:03:22;9.93;;;6.85;;
32505;SDS011;18955;51.224;8.482;2023-04-15T01:05:49;9.18;;;6.47;;
32505;SDS011;18955;51.224;8.482;2023-04-15T01:08:17;10.10;;;6.25;;
32505;SDS011;18955;51.224;8.482;2023-04-15T01:10:44;10.55;;;7.05;;
32505;SDS011;18955;51.224;8.482;2023-04-15T01:13:11;11.00;;;7.47;;
32505;SDS011;18955;51.224;8.482;2023-04-15T01:15:38;10.02;;;7.30;;
32505;SDS011;18955;51.224;8.482;2023-04-15T01:18:05;9.77;;;7.35;;
32505;SDS011;18955;51.224;8.482;2023-04-15T01:20:32;11.63;;;7.40;;
32505;SDS011;18955;51.224;8.482;2023-04-15T01:22:59;11.75;;;6.80;;
32505;SDS011;18955;51.224;8.482;2023-04-15T01:25:32;10.38;;;7.30;;
32505;SDS011;18955;51.224;8.482;2023-04-15T01:27:59;8.85;;;7.05;;
32505;SDS011;18955;51.224;8.482;2023-04-15T01:30:27;11.18;;;7.18;;
32505;SDS011;18955;51.224;8.482;2023-04-15T01:32:53;11.85;;;7.30;;
32505;SDS011;18955;51.224;8.482;2023-04-15T01:35:19;10.65;;;7.78;;
32505;SDS011;18955;51.224;8.482;2023-04-15T01:37:46;12.23;;;7.82;;
32505;SDS011;18955;51.224;8.482;2023-04-15T01:40:15;11.10;;;7.63;;
32505;SDS011;18955;51.224;8.482;2023-04-15T01:42:42;10.10;;;7.72;;
32505;SDS011;18955;51.224;8.482;2023-04-15T01:45:08;12.38;;;7.95;;
32505;SDS011;18955;51.224;8.482;2023-04-15T01:47:36;12.18;;;8.32;;
32505;SDS011;18955;51.224;8.482;2023-04-15T01:50:03;9.75;;;7.63;;
32505;SDS011;18955;51.224;8.482;2023-04-15T01:52:30;12.40;;;7.75;;
32505;SDS011;18955;51.224;8.482;2023-04-15T01:54:56;10.30;;;7.60;;
32505;SDS011;18955;51.224;8.482;2023-04-15T01:57:23;13.02;;;7.35;;
32505;SDS011;18955;51.224;8.482;2023-04-15T01:59:50;12.18;;;7.38;;
32505;SDS011;18955;51.224;8.482;2023-04-15T02:02:16;14.45;;;7.00;;
32505;SDS011;18955;51.224;8.482;2023-04-15T02:04:44;8.68;;;6.55;;
32505;SDS011;18955;51.224;8.482;2023-04-15T02:07:10;9.15;;;6.70;;
32505;SDS011;18955;51.224;8.482;2023-04-15T02:09:36;6.82;;;5.00;;
32505;SDS011;18955;51.224;8.482;2023-04-15T02:12:03;9.48;;;7.40;;
32505;SDS011;18955;51.224;8.482;2023-04-15T02:14:30;11.90;;;7.30;;
32505;SDS011;18955;51.224;8.482;2023-04-15T02:16:56;12.25;;;8.27;;
32505;SDS011;18955;51.224;8.482;2023-04-15T02:19:23;10.55;;;7.88;;
32505;SDS011;18955;51.224;8.482;2023-04-15T02:21:49;10.63;;;8.32;;
32505;SDS011;18955;51.224;8.482;2023-04-15T02:24:16;11.23;;;7.38;;
32505;SDS011;18955;51.224;8.482;2023-04-15T02:26:43;8.75;;;6.95;;
32505;SDS011;18955;51.224;8.482;2023-04-15T02:29:09;6.38;;;5.20;;
32505;SDS011;18955;51.224;8.482;2023-04-15T02:31:35;10.88;;;8.27;;
32505;SDS011;18955;51.224;8.482;2023-04-15T02:34:04;13.10;;;7.70;;
32505;SDS011;18955;51.224;8.482;2023-04-15T02:36:31;12.95;;;7.63;;
32505;SDS011;18955;51.224;8.482;2023-04-15T02:38:59;9.18;;;6.88;;
32505;SDS011;18955;51.224;8.482;2023-04-15T02:41:27;11.35;;;8.13;;
32505;SDS011;18955;51.224;8.482;2023-04-15T02:43:54;9.48;;;7.28;;
32505;SDS011;18955;51.224;8.482;2023-04-15T02:46:21;11.35;;;7.95;;
32505;SDS011;18955;51.224;8.482;2023-04-15T02:48:48;12.10;;;7.50;;
32505;SDS011;18955;51.224;8.482;2023-04-15T02:51:15;11.02;;;7.18;;
32505;SDS011;18955;51.224;8.482;2023-04-15T02:53:45;11.85;;;6.93;;
32505;SDS011;18955;51.224;8.482;2023-04-15T02:56:11;11.43;;;8.05;;
32505;SDS011;18955;51.224;8.482;2023-04-15T02:58:40;15.40;;;8.63;;
32505;SDS011;18955;51.224;8.482;2023-04-15T03:01:06;13.98;;;7.75;;
32505;SDS011;18955;51.224;8.482;2023-04-15T03:03:33;9.95;;;7.78;;
32505;SDS011;18955;51.224;8.482;2023-04-15T03:06:00;11.32;;;7.93;;
32505;SDS011;18955;51.224;8.482;2023-04-15T03:08:27;11.60;;;7.97;;
32505;SDS011;18955;51.224;8.482;2023-04-15T03:10:56;11.48;;;8.40;;
32505;SDS011;18955;51.224;8.482;2023-04-15T03:13:26;9.85;;;6.50;;
32505;SDS011;18955;51.224;8.482;2023-04-15T03:15:53;10.15;;;7.03;;
32505;SDS011;18955;51.224;8.482;2023-04-15T03:18:21;9.35;;;6.32;;
32505;SDS011;18955;51.224;8.482;2023-04-15T03:20:48;11.30;;;7.85;;
32505;SDS011;18955;51.224;8.482;2023-04-15T03:23:14;12.43;;;8.15;;
32505;SDS011;18955;51.224;8.482;2023-04-15T03:25:40;8.98;;;6.43;;
32505;SDS011;18955;51.224;8.482;2023-04-15T03:28:07;11.43;;;5.68;;
32505;SDS011;18955;51.224;8.482;2023-04-15T03:30:33;11.38;;;8.43;;
32505;SDS011;18955;51.224;8.482;2023-04-15T03:32:59;12.15;;;8.13;;
32505;SDS011;18955;51.224;8.482;2023-04-15T03:35:25;8.70;;;6.93;;
32505;SDS011;18955;51.224;8.482;2023-04-15T03:37:52;10.85;;;7.43;;
32505;SDS011;18955;51.224;8.482;2023-04-15T03:40:20;13.63;;;7.72;;
32505;SDS011;18955;51.224;8.482;2023-04-15T03:42:46;9.55;;;6.68;;
32505;SDS011;18955;51.224;8.482;2023-04-15T03:45:12;16.75;;;8.00;;
32505;SDS011;18955;51.224;8.482;2023-04-15T03:47:38;10.68;;;8.15;;
32505;SDS011;18955;51.224;8.482;2023-04-15T03:50:05;9.27;;;6.97;;
32505;SDS011;18955;51.224;8.482;2023-04-15T03:54:57;12.02;;;7.50;;
32505;SDS011;18955;51.224;8.482;2023-04-15T03:57:24;8.80;;;5.55;;
32505;SDS011;18955;51.224;8.482;2023-04-15T03:59:50;12.55;;;7.55;;
32505;SDS011;18955;51.224;8.482;2023-04-15T04:02:16;13.10;;;7.43;;
32505;SDS011;18955;51.224;8.482;2023-04-15T04:04:42;15.18;;;6.63;;
32505;SDS011;18955;51.224;8.482;2023-04-15T04:07:13;12.30;;;8.50;;
32505;SDS011;18955;51.224;8.482;2023-04-15T04:09:40;11.20;;;7.50;;
32505;SDS011;18955;51.224;8.482;2023-04-15T04:12:07;12.43;;;7.85;;
32505;SDS011;18955;51.224;8.482;2023-04-15T04:14:33;11.82;;;8.10;;
32505;SDS011;18955;51.224;8.482;2023-04-15T04:16:59;10.88;;;7.03;;
32505;SDS011;18955;51.224;8.482;2023-04-15T04:19:26;7.45;;;4.85;;
32505;SDS011;18955;51.224;8.482;2023-04-15T04:21:52;8.88;;;6.03;;
32505;SDS011;18955;51.224;8.482;2023-04-15T04:24:18;10.50;;;7.22;;
32505;SDS011;18955;51.224;8.482;2023-04-15T04:26:45;10.52;;;7.38;;
32505;SDS011;18955;51.224;8.482;2023-04-15T04:29:11;9.32;;;6.93;;
32505;SDS011;18955;51.224;8.482;2023-04-15T04:31:37;9.60;;;6.97;;
32505;SDS011;18955;51.224;8.482;2023-04-15T04:34:03;12.13;;;7.35;;
32505;SDS011;18955;51.224;8.482;2023-04-15T04:36:29;10.95;;;7.95;;
32505;SDS011;18955;51.224;8.482;2023-04-15T04:38:56;12.40;;;7.88;;
32505;SDS011;18955;51.224;8.482;2023-04-15T04:41:22;11.30;;;7.10;;
32505;SDS011;18955;51.224;8.482;2023-04-15T04:43:48;9.32;;;6.03;;
32505;SDS011;18955;51.224;8.482;2023-04-15T04:46:14;8.50;;;5.55;;
32505;SDS011;18955;51.224;8.482;2023-04-15T04:48:41;11.18;;;7.38;;
32505;SDS011;18955;51.224;8.482;2023-04-15T04:51:07;11.10;;;5.97;;
32505;SDS011;18955;51.224;8.482;2023-04-15T04:53:34;10.35;;;8.02;;
32505;SDS011;18955;51.224;8.482;2023-04-15T04:56:02;10.98;;;8.00;;
32505;SDS011;18955;51.224;8.482;2023-04-15T05:00:55;10.48;;;7.47;;
32505;SDS011;18955;51.224;8.482;2023-04-15T05:03:21;11.35;;;7.55;;
32505;SDS011;18955;51.224;8.482;2023-04-15T05:05:47;11.80;;;7.25;;
32505;SDS011;18955;51.224;8.482;2023-04-15T05:08:14;7.57;;;5.20;;
32505;SDS011;18955;51.224;8.482;2023-04-15T05:10:40;12.93;;;6.55;;
32505;SDS011;18955;51.224;8.482;2023-04-15T05:13:07;6.82;;;5.50;;
32505;SDS011;18955;51.224;8.482;2023-04-15T05:15:33;10.00;;;7.32;;
32505;SDS011;18955;51.224;8.482;2023-04-15T05:18:01;11.43;;;8.00;;
32505;SDS011;18955;51.224;8.482;2023-04-15T05:20:27;9.05;;;6.63;;
32505;SDS011;18955;51.224;8.482;2023-04-15T05:22:54;9.05;;;6.70;;
32505;SDS011;18955;51.224;8.482;2023-04-15T05:25:20;14.60;;;5.00;;
32505;SDS011;18955;51.224;8.482;2023-04-15T05:27:46;8.65;;;6.63;;
32505;SDS011;18955;51.224;8.482;2023-04-15T05:30:13;11.35;;;6.82;;
32505;SDS011;18955;51.224;8.482;2023-04-15T05:32:39;11.68;;;5.97;;
32505;SDS011;18955;51.224;8.482;2023-04-15T05:35:05;13.57;;;8.20;;
32505;SDS011;18955;51.224;8.482;2023-04-15T05:37:32;13.73;;;7.10;;
32505;SDS011;18955;51.224;8.482;2023-04-15T05:39:58;9.00;;;6.72;;
32505;SDS011;18955;51.224;8.482;2023-04-15T05:42:25;11.25;;;8.00;;
32505;SDS011;18955;51.224;8.482;2023-04-15T05:44:51;13.57;;;7.85;;
32505;SDS011;18955;51.224;8.482;2023-04-15T05:47:18;14.45;;;7.35;;
32505;SDS011;18955;51.224;8.482;2023-04-15T05:49:44;6.22;;;4.68;;
32505;SDS011;18955;51.224;8.482;2023-04-15T05:52:10;12.52;;;6.55;;
32505;SDS011;18955;51.224;8.482;2023-04-15T05:54:36;9.25;;;4.93;;
32505;SDS011;18955;51.224;8.482;2023-04-15T05:57:02;12.27;;;6.85;;
32505;SDS011;18955;51.224;8.482;2023-04-15T05:59:29;10.18;;;6.40;;
32505;SDS011;18955;51.224;8.482;2023-04-15T06:01:55;9.63;;;6.43;;
32505;SDS011;18955;51.224;8.482;2023-04-15T06:04:21;11.02;;;6.70;;
32505;SDS011;18955;51.224;8.482;2023-04-15T06:09:14;13.27;;;7.32;;
32505;SDS011;18955;51.224;8.482;2023-04-15T06:11:41;15.40;;;10.05;;
32505;SDS011;18955;51.224;8.482;2023-04-15T06:14:07;13.30;;;8.25;;
32505;SDS011;18955;51.224;8.482;2023-04-15T06:16:33;17.95;;;11.27;;
32505;SDS011;18955;51.224;8.482;2023-04-15T06:19:01;23.30;;;13.85;;
32505;SDS011;18955;51.224;8.482;2023-04-15T06:23:54;22.30;;;12.73;;
32505;SDS011;18955;51.224;8.482;2023-04-15T06:28:47;31.13;;;17.50;;
32505;SDS011;18955;51.224;8.482;2023-04-15T06:31:13;21.38;;;12.25;;
32505;SDS011;18955;51.224;8.482;2023-04-15T06:33:39;18.52;;;12.48;;
32505;SDS011;18955;51.224;8.482;2023-04-15T06:36:06;21.27;;;13.65;;
32505;SDS011;18955;51.224;8.482;2023-04-15T06:38:32;27.58;;;17.27;;
32505;SDS011;18955;51.224;8.482;2023-04-15T06:40:58;25.73;;;17.48;;
32505;SDS011;18955;51.224;8.482;2023-04-15T06:43:24;22.58;;;15.30;;
32505;SDS011;18955;51.224;8.482;2023-04-15T06:45:51;28.20;;;16.85;;
32505;SDS011;18955;51.224;8.482;2023-04-15T06:48:17;25.95;;;15.88;;
32505;SDS011;18955;51.224;8.482;2023-04-15T06:50:43;25.13;;;16.42;;
32505;SDS011;18955;51.224;8.482;2023-04-15T06:53:09;16.92;;;11.32;;
32505;SDS011;18955;51.224;8.482;2023-04-15T06:55:35;26.10;;;16.23;;
32505;SDS011;18955;51.224;8.482;2023-04-15T06:58:02;25.95;;;16.58;;
32505;SDS011;18955;51.224;8.482;2023-04-15T07:00:28;23.52;;;15.32;;
32505;SDS011;18955;51.224;8.482;2023-04-15T07:02:55;23.08;;;15.05;;
32505;SDS011;18955;51.224;8.482;2023-04-15T07:05:21;23.33;;;14.95;;
32505;SDS011;18955;51.224;8.482;2023-04-15T07:07:48;30.40;;;15.90;;
32505;SDS011;18955;51.224;8.482;2023-04-15T07:10:14;31.85;;;16.73;;
32505;SDS011;18955;51.224;8.482;2023-04-15T07:12:41;23.77;;;15.23;;
32505;SDS011;18955;51.224;8.482;2023-04-15T07:15:07;25.83;;;14.60;;
32505;SDS011;18955;51.224;8.482;2023-04-15T07:17:33;24.30;;;15.23;;
32505;SDS011;18955;51.224;8.482;2023-04-15T07:20:00;23.88;;;14.98;;
32505;SDS011;18955;51.224;8.482;2023-04-15T07:22:26;27.08;;;15.75;;
32505;SDS011;18955;51.224;8.482;2023-04-15T07:24:52;27.58;;;15.98;;
32505;SDS011;18955;51.224;8.482;2023-04-15T07:27:18;16.80;;;11.35;;
32505;SDS011;18955;51.224;8.482;2023-04-15T07:29:44;28.00;;;15.60;;
32505;SDS011;18955;51.224;8.482;2023-04-15T07:32:11;29.35;;;17.50;;
32505;SDS011;18955;51.224;8.482;2023-04-15T07:34:37;26.42;;;16.85;;
32505;SDS011;18955;51.224;8.482;2023-04-15T07:37:03;28.08;;;15.10;;
32505;SDS011;18955;51.224;8.482;2023-04-15T07:39:29;31.38;;;17.73;;
32505;SDS011;18955;51.224;8.482;2023-04-15T07:41:56;29.88;;;18.45;;
32505;SDS011;18955;51.224;8.482;2023-04-15T07:44:24;32.95;;;18.30;;
32505;SDS011;18955;51.224;8.482;2023-04-15T07:46:51;33.28;;;20.65;;
32505;SDS011;18955;51.224;8.482;2023-04-15T07:49:17;33.13;;;18.35;;
32505;SDS011;18955;51.224;8.482;2023-04-15T07:51:45;34.17;;;19.58;;
32505;SDS011;18955;51.224;8.482;2023-04-15T07:54:12;37.00;;;21.30;;
32505;SDS011;18955;51.224;8.482;2023-04-15T07:56:38;33.53;;;18.70;;
32505;SDS011;18955;51.224;8.482;2023-04-15T07:59:05;33.65;;;19.95;;
32505;SDS011;18955;51.224;8.482;2023-04-15T08:01:31;37.20;;;19.33;;
32505;SDS011;18955;51.224;8.482;2023-04-15T08:03:58;40.17;;;20.65;;
32505;SDS011;18955;51.224;8.482;2023-04-15T08:06:24;34.50;;;19.98;;
32505;SDS011;18955;51.224;8.482;2023-04-15T08:08:50;38.88;;;19.38;;
32505;SDS011;18955;51.224;8.482;2023-04-15T08:11:17;39.70;;;20.83;;
32505;SDS011;18955;51.224;8.482;2023-04-15T08:13:43;33.22;;;18.48;;
32505;SDS011;18955;51.224;8.482;2023-04-15T08:16:19;31.77;;;15.93;;
32505;SDS011;18955;51.224;8.482;2023-04-15T08:18:47;37.75;;;19.05;;
32505;SDS011;18955;51.224;8.482;2023-04-15T08:21:15;37.78;;;20.00;;
32505;SDS011;18955;51.224;8.482;2023-04-15T08:23:42;38.30;;;19.60;;
32505;SDS011;18955;51.224;8.482;2023-04-15T08:26:09;37.97;;;20.52;;
32505;SDS011;18955;51.224;8.482;2023-04-15T08:28:37;39.40;;;21.55;;
32505;SDS011;18955;51.224;8.482;2023-04-15T08:31:04;37.53;;;20.90;;
32505;SDS011;18955;51.224;8.482;2023-04-15T08:33:31;38.97;;;20.95;;
32505;SDS011;18955;51.224;8.482;2023-04-15T08:35:57;27.73;;;15.20;;
32505;SDS011;18955;51.224;8.482;2023-04-15T08:38:23;32.85;;;18.20;;
32505;SDS011;18955;51.224;8.482;2023-04-15T08:40:50;35.72;;;19.75;;
32505;SDS011;18955;51.224;8.482;2023-04-15T08:43:23;35.85;;;19.80;;
32505;SDS011;18955;51.224;8.482;2023-04-15T08:45:53;24.75;;;14.77;;
32505;SDS011;18955;51.224;8.482;2023-04-15T08:48:20;34.67;;;19.85;;
32505;SDS011;18955;51.224;8.482;2023-04-15T08:50:49;37.38;;;19.58;;
32505;SDS011;18955;51.224;8.482;2023-04-15T08:53:16;35.38;;;20.38;;
32505;SDS011;18955;51.224;8.482;2023-04-15T08:55:43;36.63;;;20.35;;
32505;SDS011;18955;51.224;8.482;2023-04-15T08:58:11;36.90;;;20.13;;
32505;SDS011;18955;51.224;8.482;2023-04-15T09:00:38;35.00;;;20.58;;
32505;SDS011;18955;51.224;8.482;2023-04-15T09:03:05;34.45;;;19.20;;
32505;SDS011;18955;51.224;8.482;2023-04-15T09:05:33;36.88;;;19.58;;
32505;SDS011;18955;51.224;8.482;2023-04-15T09:08:00;32.08;;;19.15;;
32505;SDS011;18955;51.224;8.482;2023-04-15T09:10:27;42.53;;;21.00;;
32505;SDS011;18955;51.224;8.482;2023-04-15T09:12:54;37.50;;;20.38;;
32505;SDS011;18955;51.224;8.482;2023-04-15T09:15:23;36.58;;;20.38;;
32505;SDS011;18955;51.224;8.482;2023-04-15T09:17:52;35.30;;;19.85;;
32505;SDS011;18955;51.224;8.482;2023-04-15T09:20:18;34.13;;;19.63;;
32505;SDS011;18955;51.224;8.482;2023-04-15T09:22:45;33.50;;;18.98;;
32505;SDS011;18955;51.224;8.482;2023-04-15T09:27:48;29.73;;;16.88;;
32505;SDS011;18955;51.224;8.482;2023-04-15T09:30:18;33.97;;;17.27;;
32505;SDS011;18955;51.224;8.482;2023-04-15T09:32:51;28.40;;;16.67;;
32505;SDS011;18955;51.224;8.482;2023-04-15T09:35:19;30.52;;;16.33;;
32505;SDS011;18955;51.224;8.482;2023-04-15T09:37:47;28.27;;;16.63;;
32505;SDS011;18955;51.224;8.482;2023-04-15T09:40:33;29.52;;;16.92;;
32505;SDS011;18955;51.224;8.482;2023-04-15T09:43:01;33.20;;;17.75;;
32505;SDS011;18955;51.224;8.482;2023-04-15T09:45:28;27.33;;;16.48;;
32505;SDS011;18955;51.224;8.482;2023-04-15T09:47:55;29.50;;;17.27;;
32505;SDS011;18955;51.224;8.482;2023-04-15T09:50:41;30.15;;;16.85;;
32505;SDS011;18955;51.224;8.482;2023-04-15T09:53:14;30.40;;;17.98;;
32505;SDS011;18955;51.224;8.482;2023-04-15T09:55:43;29.55;;;16.40;;
32505;SDS011;18955;51.224;8.482;2023-04-15T09:58:23;30.52;;;18.05;;
32505;SDS011;18955;51.224;8.482;2023-04-15T10:00:51;28.90;;;15.77;;
32505;SDS011;18955;51.224;8.482;2023-04-15T10:05:51;27.20;;;15.80;;
32505;SDS011;18955;51.224;8.482;2023-04-15T10:08:19;29.02;;;16.52;;
32505;SDS011;18955;51.224;8.482;2023-04-15T10:10:47;23.33;;;13.77;;
32505;SDS011;18955;51.224;8.482;2023-04-15T10:13:16;24.58;;;16.15;;
32505;SDS011;18955;51.224;8.482;2023-04-15T10:15:44;25.48;;;15.65;;
32505;SDS011;18955;51.224;8.482;2023-04-15T10:18:17;25.45;;;16.48;;
32505;SDS011;18955;51.224;8.482;2023-04-15T10:20:45;29.67;;;18.67;;
32505;SDS011;18955;51.224;8.482;2023-04-15T10:23:13;32.00;;;18.30;;
32505;SDS011;18955;51.224;8.482;2023-04-15T10:25:40;28.95;;;18.55;;
32505;SDS011;18955;51.224;8.482;2023-04-15T10:28:07;25.65;;;16.73;;
32505;SDS011;18955;51.224;8.482;2023-04-15T10:30:35;30.90;;;16.60;;
32505;SDS011;18955;51.224;8.482;2023-04-15T10:33:01;26.75;;;14.57;;
32505;SDS011;18955;51.224;8.482;2023-04-15T10:35:29;30.00;;;17.25;;
32505;SDS011;18955;51.224;8.482;2023-04-15T10:37:58;26.83;;;17.27;;
32505;SDS011;18955;51.224;8.482;2023-04-15T10:40:33;27.88;;;16.92;;
32505;SDS011;18955;51.224;8.482;2023-04-15T10:43:00;31.13;;;15.27;;
32505;SDS011;18955;51.224;8.482;2023-04-15T10:45:30;22.50;;;14.38;;
32505;SDS011;18955;51.224;8.482;2023-04-15T10:48:05;19.47;;;12.37;;
32505;SDS011;18955;51.224;8.482;2023-04-15T10:50:33;18.05;;;10.93;;
32505;SDS011;18955;51.224;8.482;2023-04-15T10:53:01;16.60;;;12.13;;
32505;SDS011;18955;51.224;8.482;2023-04-15T10:55:32;17.60;;;11.45;;
32505;SDS011;18955;51.224;8.482;2023-04-15T10:57:59;18.10;;;11.57;;
32505;SDS011;18955;51.224;8.482;2023-04-15T11:00:30;13.93;;;10.20;;
32505;SDS011;18955;51.224;8.482;2023-04-15T11:03:07;14.55;;;10.60;;
32505;SDS011;18955;51.224;8.482;2023-04-15T11:08:06;16.10;;;10.00;;
32505;SDS011;18955;51.224;8.482;2023-04-15T11:18:20;15.45;;;9.93;;
32505;SDS011;18955;51.224;8.482;2023-04-15T11:20:48;12.13;;;8.00;;
32505;SDS011;18955;51.224;8.482;2023-04-15T11:23:26;13.73;;;8.90;;
32505;SDS011;18955;51.224;8.482;2023-04-15T11:25:54;12.82;;;7.88;;
32505;SDS011;18955;51.224;8.482;2023-04-15T11:28:28;12.90;;;8.20;;
32505;SDS011;18955;51.224;8.482;2023-04-15T11:30:56;12.00;;;7.80;;
32505;SDS011;18955;51.224;8.482;2023-04-15T11:33:23;13.98;;;8.23;;
32505;SDS011;18955;51.224;8.482;2023-04-15T11:35:53;11.75;;;7.35;;
32505;SDS011;18955;51.224;8.482;2023-04-15T11:38:19;10.20;;;7.72;;
32505;SDS011;18955;51.224;8.482;2023-04-15T11:40:46;10.38;;;7.65;;
32505;SDS011;18955;51.224;8.482;2023-04-15T11:43:16;9.02;;;6.47;;
32505;SDS011;18955;51.224;8.482;2023-04-15T11:48:24;9.32;;;6.53;;
32505;SDS011;18955;51.224;8.482;2023-04-15T11:50:59;8.02;;;6.25;;
32505;SDS011;18955;51.224;8.482;2023-04-15T11:56:06;8.80;;;6.25;;
32505;SDS011;18955;51.224;8.482;2023-04-15T11:58:34;7.50;;;5.90;;
32505;SDS011;18955;51.224;8.482;2023-04-15T12:01:02;9.35;;;6.07;;
32505;SDS011;18955;51.224;8.482;2023-04-15T12:03:30;8.02;;;5.65;;
32505;SDS011;18955;51.224;8.482;2023-04-15T12:06:05;7.85;;;5.82;;
32505;SDS011;18955;51.224;8.482;2023-04-15T12:16:29;8.90;;;6.07;;
32505;SDS011;18955;51.224;8.482;2023-04-15T12:18:57;8.13;;;6.43;;
32505;SDS011;18955;51.224;8.482;2023-04-15T12:21:32;8.23;;;5.72;;
32505;SDS011;18955;51.224;8.482;2023-04-15T12:24:03;6.28;;;4.75;;
32505;SDS011;18955;51.224;8.482;2023-04-15T12:26:54;5.95;;;4.53;;
32505;SDS011;18955;51.224;8.482;2023-04-15T12:29:26;6.93;;;4.88;;
32505;SDS011;18955;51.224;8.482;2023-04-15T12:34:26;4.05;;;3.60;;
32505;SDS011;18955;51.224;8.482;2023-04-15T12:36:54;6.43;;;4.32;;
32505;SDS011;18955;51.224;8.482;2023-04-15T12:39:21;6.82;;;4.80;;
32505;SDS011;18955;51.224;8.482;2023-04-15T12:41:49;5.60;;;4.18;;
32505;SDS011;18955;51.224;8.482;2023-04-15T12:46:42;6.28;;;4.40;;
32505;SDS011;18955;51.224;8.482;2023-04-15T12:49:08;5.68;;;4.45;;
32505;SDS011;18955;51.224;8.482;2023-04-15T12:51:34;4.60;;;3.15;;
32505;SDS011;18955;51.224;8.482;2023-04-15T12:54:01;4.10;;;3.22;;
32505;SDS011;18955;51.224;8.482;2023-04-15T12:56:27;2.90;;;2.58;;
32505;SDS011;18955;51.224;8.482;2023-04-15T12:58:53;3.20;;;2.58;;
32505;SDS011;18955;51.224;8.482;2023-04-15T13:01:19;3.65;;;2.67;;
32505;SDS011;18955;51.224;8.482;2023-04-15T13:03:45;3.38;;;2.55;;
32505;SDS011;18955;51.224;8.482;2023-04-15T13:08:38;3.00;;;2.70;;
32505;SDS011;18955;51.224;8.482;2023-04-15T13:11:05;3.22;;;2.88;;
32505;SDS011;18955;51.224;8.482;2023-04-15T13:13:31;3.55;;;2.53;;
32505;SDS011;18955;51.224;8.482;2023-04-15T13:15:57;3.10;;;2.80;;
32505;SDS011;18955;51.224;8.482;2023-04-15T13:18:24;5.00;;;3.58;;
32505;SDS011;18955;51.224;8.482;2023-04-15T13:20:50;3.58;;;2.60;;
32505;SDS011;18955;51.224;8.482;2023-04-15T13:23:16;4.90;;;3.63;;
32505;SDS011;18955;51.224;8.482;2023-04-15T13:25:42;4.45;;;3.13;;
32505;SDS011;18955;51.224;8.482;2023-04-15T13:28:12;3.20;;;2.60;;
32505;SDS011;18955;51.224;8.482;2023-04-15T13:30:38;4.43;;;3.28;;
32505;SDS011;18955;51.224;8.482;2023-04-15T13:33:04;4.13;;;3.25;;
32505;SDS011;18955;51.224;8.482;2023-04-15T13:35:31;2.45;;;2.22;;
32505;SDS011;18955;51.224;8.482;2023-04-15T13:37:58;3.45;;;2.67;;
32505;SDS011;18955;51.224;8.482;2023-04-15T13:40:24;4.05;;;2.72;;
32505;SDS011;18955;51.224;8.482;2023-04-15T13:42:51;3.88;;;3.10;;
32505;SDS011;18955;51.224;8.482;2023-04-15T13:47:44;3.25;;;2.53;;
32505;SDS011;18955;51.224;8.482;2023-04-15T13:50:10;2.75;;;2.33;;
32505;SDS011;18955;51.224;8.482;2023-04-15T13:52:36;2.38;;;2.10;;
32505;SDS011;18955;51.224;8.482;2023-04-15T13:55:03;2.60;;;2.35;;
32505;SDS011;18955;51.224;8.482;2023-04-15T13:59:56;2.75;;;2.33;;
32505;SDS011;18955;51.224;8.482;2023-04-15T14:02:22;2.55;;;2.35;;
32505;SDS011;18955;51.224;8.482;2023-04-15T14:04:49;2.13;;;1.92;;
32505;SDS011;18955;51.224;8.482;2023-04-15T14:07:15;1.83;;;1.70;;
32505;SDS011;18955;51.224;8.482;2023-04-15T14:09:42;2.42;;;2.13;;
32505;SDS011;18955;51.224;8.482;2023-04-15T14:12:09;2.10;;;1.90;;
32505;SDS011;18955;51.224;8.482;2023-04-15T14:14:35;2.00;;;1.80;;
32505;SDS011;18955;51.224;8.482;2023-04-15T14:17:02;3.35;;;2.05;;
32505;SDS011;18955;51.224;8.482;2023-04-15T14:19:29;3.10;;;1.90;;
32505;SDS011;18955;51.224;8.482;2023-04-15T14:21:56;2.53;;;1.98;;
32505;SDS011;18955;51.224;8.482;2023-04-15T14:24:23;3.83;;;2.90;;
32505;SDS011;18955;51.224;8.482;2023-04-15T14:26:49;2.90;;;2.08;;
32505;SDS011;18955;51.224;8.482;2023-04-15T14:29:16;2.55;;;2.25;;
32505;SDS011;18955;51.224;8.482;2023-04-15T14:31:42;2.88;;;2.38;;
32505;SDS011;18955;51.224;8.482;2023-04-15T14:34:09;2.40;;;2.10;;
32505;SDS011;18955;51.224;8.482;2023-04-15T14:36:36;2.45;;;2.17;;
32505;SDS011;18955;51.224;8.482;2023-04-15T14:39:02;3.92;;;3.03;;
32505;SDS011;18955;51.224;8.482;2023-04-15T14:41:29;2.78;;;2.55;;
32505;SDS011;18955;51.224;8.482;2023-04-15T14:43:55;2.88;;;1.90;;
32505;SDS011;18955;51.224;8.482;2023-04-15T14:46:21;3.60;;;2.38;;
32505;SDS011;18955;51.224;8.482;2023-04-15T14:48:48;4.97;;;3.38;;
32505;SDS011;18955;51.224;8.482;2023-04-15T14:51:14;4.72;;;2.45;;
32505;SDS011;18955;51.224;8.482;2023-04-15T14:53:40;2.65;;;2.28;;
32505;SDS011;18955;51.224;8.482;2023-04-15T14:56:07;2.97;;;2.40;;
32505;SDS011;18955;51.224;8.482;2023-04-15T14:58:33;2.22;;;1.88;;
32505;SDS011;18955;51.224;8.482;2023-04-15T15:00:59;4.13;;;1.75;;
32505;SDS011;18955;51.224;8.482;2023-04-15T15:03:27;3.05;;;1.95;;
32505;SDS011;18955;51.224;8.482;2023-04-15T15:08:20;3.75;;;2.58;;
32505;SDS011;18955;51.224;8.482;2023-04-15T15:10:46;2.22;;;1.70;;
32505;SDS011;18955;51.224;8.482;2023-04-15T15:13:12;3.20;;;1.42;;
32505;SDS011;18955;51.224;8.482;2023-04-15T15:15:38;2.08;;;1.58;;
32505;SDS011;18955;51.224;8.482;2023-04-15T15:18:05;8.65;;;4.00;;
32505;SDS011;18955;51.224;8.482;2023-04-15T15:20:31;8.70;;;4.13;;
32505;SDS011;18955;51.224;8.482;2023-04-15T15:22:59;6.18;;;4.00;;
32505;SDS011;18955;51.224;8.482;2023-04-15T15:25:25;3.45;;;1.67;;
32505;SDS011;18955;51.224;8.482;2023-04-15T15:27:52;4.45;;;1.33;;
32505;SDS011;18955;51.224;8.482;2023-04-15T15:30:18;1.55;;;1.45;;
32505;SDS011;18955;51.224;8.482;2023-04-15T15:32:45;2.83;;;1.80;;
32505;SDS011;18955;51.224;8.482;2023-04-15T15:35:11;2.15;;;1.35;;